Weather at Zürich Airport

Public forecast

Using degrees Celsius for public forecast. Weather courtesy of forecast.io.

Current aviation weather report (METAR) for Zürich Airport

Retrieved 2021/07/28 12:50 UTC (27 minutes ago):

LSZH 281250Z VRB03KT 9999 FEW018 SCT023 BKN035 20/15 Q1017 NOSIG

Aviation forecast (TAF) for Zürich Airport

Retrieved 2021/07/28 12:35 UTC (42 minutes ago):

TAF LSZH 281125Z 2812/2918 22004KT 9999 FEW010 BKN035 TX23/2815Z TN14/2903Z TX26/2915Z TEMPO 2812/2816 30008KT BECMG 2901/2904 1200 PRFG BKN003 PROB40 2903/2906 0600 FG VV002 BECMG 2906/2909 9999 FEW010 BECMG 2911/2914 CAVOK